createdAt,value
2022-12-19T00:00:01.044Z,61.60
2022-12-19T00:02:30.600Z,61.70
2022-12-19T00:04:59.453Z,61.70
2022-12-19T00:07:27.850Z,61.80
2022-12-19T00:09:56.268Z,62.00
2022-12-19T00:12:26.078Z,62.00
2022-12-19T00:14:54.384Z,62.10
2022-12-19T00:17:24.226Z,62.20
2022-12-19T00:19:52.996Z,62.20
2022-12-19T00:22:21.418Z,62.30
2022-12-19T00:24:49.879Z,62.40
2022-12-19T00:27:18.263Z,62.40
2022-12-19T00:29:49.563Z,62.50
2022-12-19T00:32:17.947Z,62.60
2022-12-19T00:34:46.584Z,62.60
2022-12-19T00:37:14.953Z,62.70
2022-12-19T00:39:43.506Z,62.70
2022-12-19T00:42:11.850Z,62.80
2022-12-19T00:44:40.175Z,62.90
2022-12-19T00:47:09.918Z,63.00
2022-12-19T00:49:39.417Z,63.00
2022-12-19T00:52:10.871Z,63.00
2022-12-19T00:54:39.295Z,63.00
2022-12-19T00:57:08.036Z,63.00
2022-12-19T00:59:36.562Z,63.10
2022-12-19T01:02:05.086Z,63.20
2022-12-19T01:04:41.478Z,63.20
2022-12-19T01:07:15.535Z,63.50
2022-12-19T01:09:44.228Z,63.50
2022-12-19T01:12:31.610Z,63.60
2022-12-19T01:15:03.924Z,63.70
2022-12-19T01:17:43.548Z,63.70
2022-12-19T01:20:29.282Z,63.80
2022-12-19T01:23:00.177Z,64.00
2022-12-19T01:25:29.410Z,64.00
2022-12-19T01:27:58.903Z,64.10
2022-12-19T01:30:29.124Z,64.20
2022-12-19T01:33:00.043Z,64.30
2022-12-19T01:35:30.470Z,64.40
2022-12-19T01:38:07.882Z,64.50
2022-12-19T01:40:38.200Z,64.50
2022-12-19T01:43:08.074Z,64.50
2022-12-19T01:45:45.221Z,64.60
2022-12-19T01:48:21.988Z,64.70
2022-12-19T01:51:02.028Z,65.00
2022-12-19T01:53:48.193Z,65.00
2022-12-19T01:56:20.968Z,65.00
2022-12-19T01:59:06.128Z,65.00
2022-12-19T02:01:49.549Z,65.10
2022-12-19T02:04:25.065Z,65.00
2022-12-19T02:06:59.859Z,65.10
2022-12-19T02:09:35.883Z,65.20
2022-12-19T02:12:05.799Z,65.20
2022-12-19T02:14:38.016Z,65.20
2022-12-19T02:17:13.401Z,65.30
2022-12-19T02:20:47.336Z,65.50
2022-12-19T02:23:53.036Z,65.80
2022-12-19T02:26:51.841Z,65.60
2022-12-19T02:29:37.360Z,65.60
2022-12-19T02:32:13.232Z,65.60
2022-12-19T02:34:48.288Z,65.70
2022-12-19T02:37:24.822Z,65.90
2022-12-19T02:40:00.711Z,65.90
2022-12-19T02:42:33.774Z,65.90
2022-12-19T02:45:08.513Z,66.00
2022-12-19T02:47:40.476Z,66.00
2022-12-19T02:50:10.661Z,66.20
2022-12-19T02:52:48.833Z,66.20
2022-12-19T02:55:24.043Z,66.50
2022-12-19T02:58:27.220Z,66.50
2022-12-19T03:01:11.831Z,66.70
2022-12-19T03:03:56.757Z,66.50
2022-12-19T03:06:33.917Z,66.70
2022-12-19T03:09:13.482Z,66.60
2022-12-19T03:11:44.869Z,66.70
2022-12-19T03:14:17.691Z,66.80
2022-12-19T03:16:47.033Z,66.80
2022-12-19T03:19:18.119Z,66.80
2022-12-19T03:21:49.165Z,66.90
2022-12-19T03:24:18.611Z,66.80
2022-12-19T03:26:51.832Z,66.80
2022-12-19T03:29:26.550Z,66.90
2022-12-19T03:31:56.882Z,67.00
2022-12-19T03:34:33.087Z,66.90
2022-12-19T03:37:05.799Z,67.10
2022-12-19T03:39:37.433Z,67.10
2022-12-19T03:42:37.116Z,67.10
2022-12-19T03:45:08.111Z,67.20
2022-12-19T03:47:40.877Z,67.20
2022-12-19T03:50:12.265Z,67.40
2022-12-19T03:52:49.517Z,67.40
2022-12-19T03:55:25.513Z,67.40
2022-12-19T03:58:00.663Z,67.30
2022-12-19T04:00:30.831Z,67.40
2022-12-19T04:03:01.273Z,67.40
2022-12-19T04:05:31.636Z,67.40
2022-12-19T04:08:05.903Z,67.40
2022-12-19T04:10:42.051Z,67.50
2022-12-19T04:13:14.498Z,67.60
2022-12-19T04:15:55.793Z,67.60
2022-12-19T04:18:25.809Z,67.90
2022-12-19T04:21:03.523Z,67.70
2022-12-19T04:23:35.546Z,67.90
2022-12-19T04:26:06.517Z,67.90
2022-12-19T04:28:41.923Z,67.90
2022-12-19T04:31:14.928Z,68.00
2022-12-19T04:33:43.755Z,68.10
2022-12-19T04:36:14.006Z,68.10
2022-12-19T04:38:42.491Z,68.20
2022-12-19T04:41:10.915Z,68.30
2022-12-19T04:43:39.767Z,68.30
2022-12-19T04:46:08.262Z,68.30
2022-12-19T04:48:37.963Z,68.40
2022-12-19T04:51:07.263Z,68.50
2022-12-19T04:53:37.520Z,68.50
2022-12-19T04:56:08.627Z,68.50
2022-12-19T04:58:37.086Z,68.60
2022-12-19T05:01:07.494Z,68.60
2022-12-19T05:03:36.575Z,68.80
2022-12-19T05:06:08.377Z,68.80
2022-12-19T05:08:40.560Z,68.90
2022-12-19T05:11:14.578Z,69.00
2022-12-19T05:13:47.642Z,69.00
2022-12-19T05:16:16.673Z,69.10
2022-12-19T05:18:45.677Z,69.10
2022-12-19T05:21:14.820Z,69.30
2022-12-19T05:23:44.649Z,69.40
2022-12-19T05:26:14.041Z,69.40
2022-12-19T05:28:43.136Z,69.40
2022-12-19T05:31:15.324Z,69.40
2022-12-19T05:33:44.943Z,69.40
2022-12-19T05:36:15.853Z,69.60
2022-12-19T05:38:46.123Z,69.70
2022-12-19T05:41:16.621Z,69.70
2022-12-19T05:43:45.601Z,69.80
2022-12-19T05:46:14.319Z,69.80
2022-12-19T05:48:42.793Z,69.80
2022-12-19T05:51:11.881Z,69.90
2022-12-19T05:53:41.595Z,69.90
2022-12-19T05:56:14.187Z,70.00
2022-12-19T05:58:43.677Z,70.10
2022-12-19T06:01:15.306Z,70.10
2022-12-19T06:03:44.137Z,70.10
2022-12-19T06:06:14.995Z,70.10
2022-12-19T06:08:44.021Z,70.30
2022-12-19T06:11:15.558Z,70.30
2022-12-19T06:13:44.787Z,70.40
2022-12-19T06:16:16.749Z,70.30
2022-12-19T06:18:46.506Z,70.50
2022-12-19T06:21:17.644Z,70.60
2022-12-19T06:23:46.917Z,70.70
2022-12-19T06:26:20.467Z,70.80
2022-12-19T06:28:49.337Z,70.90
2022-12-19T06:31:19.026Z,70.90
2022-12-19T06:33:47.575Z,70.90
2022-12-19T06:36:21.070Z,71.00
2022-12-19T06:38:50.515Z,71.00
2022-12-19T06:41:38.588Z,71.00
2022-12-19T06:44:10.673Z,71.00
2022-12-19T06:46:41.952Z,71.00
2022-12-19T06:49:12.357Z,71.10
2022-12-19T06:51:41.053Z,71.00
2022-12-19T06:54:11.137Z,71.20
2022-12-19T06:56:42.664Z,71.10
2022-12-19T06:59:15.107Z,71.20
2022-12-19T07:01:57.407Z,71.20
2022-12-19T07:04:31.820Z,71.40
2022-12-19T07:07:01.055Z,71.30
2022-12-19T07:09:31.761Z,71.20
2022-12-19T07:12:01.734Z,71.40
2022-12-19T07:14:30.106Z,71.60
2022-12-19T07:17:01.738Z,71.60
2022-12-19T07:19:31.828Z,71.80
2022-12-19T07:22:02.778Z,71.70
2022-12-19T07:24:32.057Z,71.70
2022-12-19T07:27:02.573Z,71.80
2022-12-19T07:29:30.952Z,71.80
2022-12-19T07:32:00.034Z,71.70
2022-12-19T07:34:28.681Z,71.80
2022-12-19T07:36:57.049Z,71.90
2022-12-19T07:39:26.131Z,72.10
2022-12-19T07:41:54.672Z,72.00
2022-12-19T07:44:36.171Z,72.00
2022-12-19T07:47:04.635Z,72.20
2022-12-19T07:49:33.379Z,72.20
2022-12-19T07:52:01.786Z,72.20
2022-12-19T07:54:30.578Z,72.20
2022-12-19T07:56:58.955Z,72.20
2022-12-19T07:59:32.265Z,72.40
2022-12-19T08:02:05.580Z,72.40
2022-12-19T08:04:35.153Z,72.50
2022-12-19T08:07:03.612Z,72.40
2022-12-19T08:09:32.632Z,72.60
2022-12-19T08:12:01.147Z,72.70
2022-12-19T08:14:29.531Z,72.70
2022-12-19T08:19:48.158Z,72.90
2022-12-19T08:22:16.688Z,73.00
2022-12-19T08:24:45.452Z,73.00
2022-12-19T08:27:14.110Z,73.00
2022-12-19T08:29:42.955Z,73.10
2022-12-19T08:32:15.763Z,73.10
2022-12-19T08:34:51.113Z,73.00
2022-12-19T08:37:19.650Z,73.10
2022-12-19T08:39:48.231Z,73.10
2022-12-19T08:42:16.728Z,73.20
2022-12-19T08:44:45.225Z,73.20
2022-12-19T08:47:14.149Z,73.30
2022-12-19T08:49:42.600Z,73.30
2022-12-19T08:52:12.837Z,73.30
2022-12-19T08:54:41.195Z,73.20
2022-12-19T08:57:09.689Z,73.20
2022-12-19T08:59:38.342Z,73.10
2022-12-19T09:02:08.465Z,73.10
2022-12-19T09:06:02.511Z,73.20
2022-12-19T09:07:27.913Z,73.30
2022-12-19T09:09:56.308Z,73.20
2022-12-19T09:12:24.808Z,73.30
2022-12-19T09:14:54.477Z,73.30
2022-12-19T09:17:22.984Z,73.50
2022-12-19T09:19:51.974Z,73.50
2022-12-19T09:22:21.126Z,73.50
2022-12-19T09:24:59.635Z,73.60
2022-12-19T09:27:28.069Z,73.50
2022-12-19T09:29:56.450Z,73.60
2022-12-19T09:32:24.956Z,73.50
2022-12-19T09:34:53.437Z,73.60
2022-12-19T09:37:21.933Z,73.70
2022-12-19T09:39:50.784Z,73.50
2022-12-19T09:42:48.134Z,73.60
2022-12-19T09:45:49.714Z,73.90
2022-12-19T09:48:24.497Z,73.90
2022-12-19T09:51:09.322Z,73.80
2022-12-19T09:53:58.507Z,74.00
2022-12-19T09:56:33.083Z,74.00
2022-12-19T09:59:15.442Z,73.90
2022-12-19T10:01:56.854Z,74.00
2022-12-19T10:04:28.086Z,74.00
2022-12-19T10:07:20.570Z,73.90
2022-12-19T10:11:40.433Z,73.80
2022-12-19T10:13:13.659Z,73.90
2022-12-19T10:15:59.814Z,74.10
2022-12-19T10:18:51.003Z,74.00
2022-12-19T10:22:07.531Z,74.00
2022-12-19T10:24:52.007Z,74.10
2022-12-19T10:27:43.988Z,74.10
2022-12-19T10:30:31.357Z,74.10
2022-12-19T10:33:20.062Z,74.30
2022-12-19T10:35:55.188Z,74.40
2022-12-19T10:38:32.906Z,74.30
2022-12-19T10:41:17.070Z,74.40
2022-12-19T10:44:02.510Z,74.60
2022-12-19T10:46:40.819Z,74.50
2022-12-19T10:49:17.323Z,74.60
2022-12-19T10:51:58.849Z,74.50
2022-12-19T10:54:33.599Z,74.50
2022-12-19T10:57:20.978Z,74.50
2022-12-19T11:00:05.212Z,74.70
2022-12-19T11:02:42.600Z,74.60
2022-12-19T11:05:28.262Z,74.50
2022-12-19T11:08:15.927Z,74.60
2022-12-19T11:13:23.012Z,74.60
2022-12-19T11:18:43.388Z,74.50
2022-12-19T11:24:38.771Z,74.50
2022-12-19T11:29:34.684Z,74.50
2022-12-19T11:30:05.875Z,74.40
2022-12-19T11:30:37.378Z,74.30
2022-12-19T11:30:47.997Z,74.20
2022-12-19T11:34:07.385Z,74.20
2022-12-19T11:36:41.239Z,74.20
2022-12-19T11:39:20.232Z,74.30
2022-12-19T11:41:58.043Z,74.20
2022-12-19T11:44:35.273Z,74.10
2022-12-19T11:47:14.269Z,74.20
2022-12-19T11:49:47.743Z,74.20
2022-12-19T11:53:03.476Z,74.20
2022-12-19T11:55:31.740Z,74.30
2022-12-19T11:58:00.262Z,74.10
2022-12-19T12:00:29.220Z,74.10
2022-12-19T12:03:55.965Z,74.10
2022-12-19T12:06:34.954Z,74.30
2022-12-19T12:12:55.094Z,74.10
2022-12-19T12:21:00.210Z,74.20
2022-12-19T12:24:59.517Z,74.20
2022-12-19T12:31:00.905Z,74.20
2022-12-19T12:31:26.615Z,73.90
2022-12-19T12:31:40.621Z,73.90
2022-12-19T12:31:46.586Z,74.00
2022-12-19T12:32:02.523Z,73.80
2022-12-19T12:35:40.776Z,73.70
2022-12-19T12:39:25.346Z,73.80
2022-12-19T12:42:09.193Z,73.70
2022-12-19T12:44:45.907Z,73.60
2022-12-19T12:47:20.942Z,73.60
2022-12-19T12:49:54.398Z,73.80
2022-12-19T12:52:31.217Z,73.70
2022-12-19T12:55:00.746Z,73.80
2022-12-19T12:57:38.643Z,73.70
2022-12-19T13:00:33.602Z,73.90
2022-12-19T13:03:08.569Z,74.00
2022-12-19T13:05:54.318Z,73.80
2022-12-19T13:08:37.249Z,73.80
2022-12-19T13:11:08.438Z,73.80
2022-12-19T13:13:52.350Z,73.80
2022-12-19T13:16:53.641Z,73.90
2022-12-19T13:19:28.834Z,73.90
2022-12-19T13:22:24.870Z,73.90
2022-12-19T13:24:55.432Z,74.10
2022-12-19T13:27:37.488Z,73.90
2022-12-19T13:30:17.941Z,73.90
2022-12-19T13:33:11.009Z,73.90
2022-12-19T13:39:10.717Z,73.80
2022-12-19T13:39:54.909Z,73.50
2022-12-19T13:41:48.052Z,73.40
2022-12-19T13:44:21.382Z,73.50
2022-12-19T13:46:51.034Z,73.30
2022-12-19T13:49:31.803Z,73.30
2022-12-19T13:52:06.800Z,73.20
2022-12-19T13:54:48.188Z,73.10
2022-12-19T13:57:27.039Z,73.10
2022-12-19T14:00:01.312Z,73.10
2022-12-19T14:02:44.975Z,73.10
2022-12-19T14:06:14.909Z,72.90
2022-12-19T14:08:21.799Z,72.90
2022-12-19T14:11:36.134Z,72.80
2022-12-19T14:14:13.296Z,72.80
2022-12-19T14:16:46.707Z,72.80
2022-12-19T14:19:23.717Z,72.70
2022-12-19T14:22:10.511Z,72.60
2022-12-19T14:24:55.079Z,72.60
2022-12-19T14:28:26.483Z,72.50
2022-12-19T14:30:39.669Z,72.40
2022-12-19T14:33:44.324Z,73.30
2022-12-19T14:36:10.526Z,72.30
2022-12-19T14:39:20.494Z,72.20
2022-12-19T14:42:02.813Z,72.30
2022-12-19T14:52:08.330Z,72.20
2022-12-19T14:54:02.999Z,72.10
2022-12-19T14:54:22.685Z,72.10
2022-12-19T14:54:44.365Z,72.00
2022-12-19T14:56:58.104Z,72.00
2022-12-19T14:59:14.940Z,72.10
2022-12-19T15:01:43.886Z,72.00
2022-12-19T15:04:53.256Z,72.00
2022-12-19T15:07:12.574Z,72.00
2022-12-19T15:11:01.105Z,72.00
2022-12-19T15:14:54.652Z,72.10
2022-12-19T15:16:07.421Z,72.10
2022-12-19T15:18:41.463Z,72.00
2022-12-19T15:21:14.202Z,72.00
2022-12-19T15:23:45.982Z,72.00
2022-12-19T15:26:17.167Z,72.00
2022-12-19T15:28:51.194Z,72.00
2022-12-19T15:31:38.789Z,72.00
2022-12-19T15:34:34.893Z,72.00
2022-12-19T15:37:05.489Z,72.10
2022-12-19T15:39:34.064Z,71.90
2022-12-19T15:42:03.424Z,71.90
2022-12-19T15:44:36.995Z,72.00
2022-12-19T15:47:12.457Z,72.00
2022-12-19T15:49:40.819Z,72.00
2022-12-19T15:52:17.869Z,71.90
2022-12-19T15:54:48.588Z,72.00
2022-12-19T15:57:25.800Z,71.90
2022-12-19T15:59:57.888Z,71.90
2022-12-19T16:02:56.329Z,71.90
2022-12-19T16:05:18.517Z,71.90
2022-12-19T16:07:47.331Z,71.80
2022-12-19T16:10:16.647Z,71.80
2022-12-19T16:12:49.444Z,71.90
2022-12-19T16:15:26.369Z,71.90
2022-12-19T16:17:57.042Z,72.00
2022-12-19T16:20:27.814Z,71.90
2022-12-19T16:22:56.325Z,72.00
2022-12-19T16:25:29.500Z,72.00
2022-12-19T16:28:00.135Z,72.00
2022-12-19T16:30:32.988Z,72.00
2022-12-19T16:33:02.387Z,72.10
2022-12-19T16:36:03.142Z,72.10
2022-12-19T16:38:21.398Z,72.20
2022-12-19T16:40:51.807Z,72.20
2022-12-19T16:43:28.439Z,72.20
2022-12-19T16:46:01.712Z,72.20
2022-12-19T16:48:31.665Z,72.20
2022-12-19T16:51:01.172Z,72.40
2022-12-19T16:53:30.143Z,72.40
2022-12-19T16:56:01.093Z,72.40
2022-12-19T16:58:30.788Z,72.40
2022-12-19T17:01:01.055Z,72.40
2022-12-19T17:03:36.190Z,72.20
2022-12-19T17:06:05.698Z,72.30
2022-12-19T17:08:34.507Z,72.30
2022-12-19T17:11:03.160Z,72.20
2022-12-19T17:13:32.043Z,72.30
2022-12-19T17:16:02.221Z,72.20
2022-12-19T17:18:35.923Z,72.20
2022-12-19T17:21:04.696Z,72.30
2022-12-19T17:23:33.430Z,72.20
2022-12-19T17:26:02.349Z,72.20
2022-12-19T17:28:31.327Z,72.20
2022-12-19T17:31:07.561Z,72.20
2022-12-19T17:33:38.821Z,72.30
2022-12-19T17:36:11.819Z,72.30
2022-12-19T17:38:40.331Z,73.10
2022-12-19T17:41:15.493Z,72.20
2022-12-19T17:43:43.988Z,72.30
2022-12-19T17:46:20.926Z,72.30
2022-12-19T17:48:52.235Z,72.30
2022-12-19T17:51:23.477Z,72.30
2022-12-19T17:53:52.063Z,72.30
2022-12-19T17:56:22.074Z,72.40
2022-12-19T17:58:50.840Z,72.40
2022-12-19T18:01:23.995Z,72.30
2022-12-19T18:03:54.281Z,72.30
2022-12-19T18:06:23.219Z,72.30
2022-12-19T18:08:52.084Z,72.20
2022-12-19T18:11:24.295Z,72.20
2022-12-19T18:13:54.341Z,72.20
2022-12-19T18:16:28.171Z,72.20
2022-12-19T18:18:57.065Z,72.20
2022-12-19T18:21:25.557Z,72.20
2022-12-19T18:23:54.188Z,72.30
2022-12-19T18:26:22.770Z,72.20
2022-12-19T18:28:51.685Z,72.20
2022-12-19T18:31:26.573Z,72.30
2022-12-19T18:34:02.028Z,72.40
2022-12-19T18:36:40.977Z,72.30
2022-12-19T18:39:20.805Z,72.30
2022-12-19T18:41:50.006Z,72.40
2022-12-19T18:44:19.053Z,72.30
2022-12-19T18:46:51.064Z,72.30
2022-12-19T18:49:19.782Z,72.30
2022-12-19T18:51:49.992Z,73.20
2022-12-19T18:54:21.098Z,72.20
2022-12-19T18:56:49.884Z,72.20
2022-12-19T18:59:20.079Z,72.20
2022-12-19T19:01:50.141Z,72.20
2022-12-19T19:04:18.948Z,72.30
2022-12-19T19:06:52.215Z,72.30
2022-12-19T19:09:22.633Z,72.40
2022-12-19T19:11:51.151Z,72.30
2022-12-19T19:14:19.896Z,72.40
2022-12-19T19:16:50.330Z,73.20
2022-12-19T19:19:20.496Z,72.40
2022-12-19T19:21:49.183Z,72.50
2022-12-19T19:24:20.805Z,72.40
2022-12-19T19:26:49.669Z,72.50
2022-12-19T19:29:19.612Z,72.50
2022-12-19T19:31:52.997Z,72.50
2022-12-19T19:34:25.574Z,72.70
2022-12-19T19:36:56.696Z,72.50
2022-12-19T19:39:25.656Z,72.50
2022-12-19T19:41:56.518Z,72.50
2022-12-19T19:44:25.214Z,72.60
2022-12-19T19:46:55.149Z,72.60
2022-12-19T19:49:24.702Z,72.60
2022-12-19T19:52:00.318Z,72.60
2022-12-19T19:54:30.985Z,72.60
2022-12-19T19:56:59.519Z,72.70
2022-12-19T19:59:32.028Z,72.70
2022-12-19T20:02:02.583Z,72.70
2022-12-19T20:04:31.129Z,72.70
2022-12-19T20:06:59.991Z,72.70
2022-12-19T20:09:28.663Z,72.60
2022-12-19T20:11:58.069Z,72.60
2022-12-19T20:14:27.922Z,72.70
2022-12-19T20:16:56.383Z,73.50
2022-12-19T20:19:26.193Z,72.70
2022-12-19T20:21:54.636Z,72.80
2022-12-19T20:24:23.045Z,72.70
2022-12-19T20:26:51.692Z,72.90
2022-12-19T20:29:20.551Z,72.80
2022-12-19T20:31:49.044Z,72.90
2022-12-19T20:34:20.015Z,73.00
2022-12-19T20:36:50.582Z,73.10
2022-12-19T20:39:22.417Z,73.10
2022-12-19T20:41:51.903Z,73.10
2022-12-19T20:44:24.584Z,73.00
2022-12-19T20:46:53.368Z,73.00
2022-12-19T20:49:21.915Z,73.00
2022-12-19T20:51:51.998Z,72.80
2022-12-19T20:54:20.893Z,72.80
2022-12-19T20:56:49.339Z,72.70
2022-12-19T20:59:17.839Z,72.70
2022-12-19T21:01:46.450Z,72.70
2022-12-19T21:04:15.562Z,72.70
2022-12-19T21:06:44.280Z,72.70
2022-12-19T21:09:14.658Z,72.80
2022-12-19T21:11:43.181Z,72.90
2022-12-19T21:14:11.950Z,72.90
2022-12-19T21:16:40.421Z,73.00
2022-12-19T21:19:09.140Z,73.10
2022-12-19T21:21:37.893Z,73.10
2022-12-19T21:24:06.915Z,73.10
2022-12-19T21:26:37.051Z,73.20
2022-12-19T21:29:05.867Z,73.30
2022-12-19T21:31:34.718Z,73.40
2022-12-19T21:34:04.209Z,73.40
2022-12-19T21:36:33.069Z,73.60
2022-12-19T21:39:03.608Z,73.70
2022-12-19T21:41:32.781Z,73.80
2022-12-19T21:44:02.601Z,73.80
2022-12-19T21:46:34.158Z,73.80
2022-12-19T21:49:04.014Z,73.80
2022-12-19T21:51:33.635Z,73.80
2022-12-19T21:54:04.531Z,72.80
2022-12-19T21:56:35.571Z,72.80
2022-12-19T21:59:08.413Z,72.90
2022-12-19T22:01:37.573Z,73.00
2022-12-19T22:04:09.092Z,73.00
2022-12-19T22:06:38.982Z,73.80
2022-12-19T22:09:10.884Z,72.90
2022-12-19T22:11:39.355Z,72.90
2022-12-19T22:14:10.508Z,72.80
2022-12-19T22:16:39.347Z,73.00
2022-12-19T22:19:08.180Z,72.90
2022-12-19T22:23:39.428Z,73.00
2022-12-19T22:26:11.489Z,73.20
2022-12-19T22:28:42.425Z,73.10
2022-12-19T22:31:22.929Z,73.20
2022-12-19T22:33:54.757Z,73.30
2022-12-19T22:36:28.364Z,73.10
2022-12-19T22:39:00.877Z,73.20
2022-12-19T22:41:29.888Z,73.10
2022-12-19T22:43:58.402Z,73.10
2022-12-19T22:46:29.676Z,73.10
2022-12-19T22:49:00.623Z,73.10
2022-12-19T22:51:31.393Z,73.10
2022-12-19T22:54:01.645Z,72.90
2022-12-19T22:56:32.480Z,72.90
2022-12-19T22:59:05.805Z,73.10
2022-12-19T23:01:38.351Z,73.10
2022-12-19T23:04:09.466Z,73.00
2022-12-19T23:06:39.514Z,73.20
2022-12-19T23:09:12.892Z,73.20
2022-12-19T23:11:44.113Z,73.30
2022-12-19T23:14:15.858Z,73.20
2022-12-19T23:16:45.398Z,73.30
2022-12-19T23:19:15.720Z,73.30
2022-12-19T23:21:44.233Z,73.30
2022-12-19T23:24:14.381Z,73.30
2022-12-19T23:26:43.230Z,73.40
2022-12-19T23:29:14.588Z,73.40
2022-12-19T23:31:45.696Z,73.40
2022-12-19T23:34:14.970Z,73.30
2022-12-19T23:39:34.007Z,73.30
2022-12-19T23:42:02.485Z,73.40
2022-12-19T23:44:31.360Z,73.40
2022-12-19T23:47:03.409Z,73.30
2022-12-19T23:49:33.883Z,73.30
2022-12-19T23:52:02.314Z,73.40
2022-12-19T23:54:32.275Z,73.40
2022-12-19T23:57:00.915Z,73.50
2022-12-19T23:59:29.307Z,73.50
